Time;durP1;ratioP1;P1;durP2;ratioP2;P2;SDS_P1;SDS_P2;PMS_P1;PMS_P2;Temp;Humidity;BMP_temperature;BMP_pressure;BME280_temperature;BME280_humidity;BME280_pressure;Samples;Min_cycle;Max_cycle;Signal;HPM_P1;HPM_P2
2020/12/16 00:01:09;;;;;;;10.57;6.05;;;6.80;65.30;;;;;;5054037;28;20064;-73
2020/12/16 00:03:35;;;;;;;14.23;7.38;;;6.80;65.10;;;;;;5054408;28;20025;-73
2020/12/16 00:06:02;;;;;;;13.65;7.90;;;6.70;65.00;;;;;;5053896;28;20506;-73
2020/12/16 00:08:28;;;;;;;13.43;7.70;;;6.70;65.20;;;;;;5054377;28;20021;-73
2020/12/16 00:10:54;;;;;;;13.57;8.27;;;6.70;65.20;;;;;;5053708;28;20058;-74
2020/12/16 00:13:20;;;;;;;12.95;7.85;;;6.70;65.20;;;;;;5053802;28;20037;-73
2020/12/16 00:15:46;;;;;;;13.10;7.75;;;6.70;65.40;;;;;;5054508;28;20071;-73
2020/12/16 00:18:12;;;;;;;11.50;6.13;;;6.70;65.30;;;;;;5054239;28;20021;-73
2020/12/16 00:20:38;;;;;;;12.50;6.75;;;6.70;65.20;;;;;;5053276;28;20021;-74
2020/12/16 00:23:04;;;;;;;12.13;6.93;;;6.70;65.20;;;;;;5053927;28;20441;-73
2020/12/16 00:25:29;;;;;;;12.20;6.45;;;6.70;65.20;;;;;;5052851;28;20020;-73
2020/12/16 00:27:55;;;;;;;13.23;7.38;;;6.70;65.10;;;;;;5053501;28;20025;-73
2020/12/16 00:30:21;;;;;;;13.80;7.53;;;6.60;65.00;;;;;;5052469;28;20049;-73
2020/12/16 00:32:46;;;;;;;12.88;7.47;;;6.60;64.90;;;;;;5052315;28;20029;-74
2020/12/16 00:35:12;;;;;;;14.13;7.68;;;6.50;65.00;;;;;;5053910;28;20017;-73
2020/12/16 00:37:42;;;;;;;10.82;6.72;;;6.50;65.10;;;;;;5053672;28;20086;-73
2020/12/16 00:40:10;;;;;;;11.40;7.13;;;6.50;65.10;;;;;;5052775;28;20017;-73
2020/12/16 00:42:36;;;;;;;11.43;6.47;;;6.50;65.10;;;;;;5053784;28;20039;-73
2020/12/16 00:45:06;;;;;;;11.20;6.82;;;6.50;65.20;;;;;;5053558;28;20013;-72
2020/12/16 00:47:33;;;;;;;9.98;6.35;;;6.50;65.10;;;;;;5053810;28;20021;-73
2020/12/16 00:49:59;;;;;;;12.38;7.00;;;6.50;65.10;;;;;;5053814;28;20029;-73
2020/12/16 00:52:28;;;;;;;12.15;7.00;;;6.50;65.20;;;;;;5053197;28;20446;-73
2020/12/16 00:54:54;;;;;;;11.07;6.55;;;6.50;65.10;;;;;;5053352;28;20021;-73
2020/12/16 00:57:20;;;;;;;12.82;7.72;;;6.50;65.10;;;;;;5053343;28;20021;-72
2020/12/16 00:59:46;;;;;;;14.02;7.55;;;6.50;65.10;;;;;;5053699;28;20028;-72
2020/12/16 01:02:11;;;;;;;9.73;6.45;;;6.50;65.00;;;;;;5053238;28;20021;-73
2020/12/16 01:04:37;;;;;;;11.68;7.40;;;6.50;65.00;;;;;;5053160;28;20051;-73
2020/12/16 01:07:03;;;;;;;13.82;8.23;;;6.50;65.10;;;;;;5053302;28;20032;-73
2020/12/16 01:09:28;;;;;;;13.60;7.80;;;6.50;65.00;;;;;;5053064;28;20125;-73
2020/12/16 01:11:54;;;;;;;15.43;7.88;;;6.50;65.10;;;;;;5053261;28;20369;-73
2020/12/16 01:14:20;;;;;;;14.45;8.23;;;6.60;65.10;;;;;;5053693;28;20099;-73
2020/12/16 01:16:45;;;;;;;14.13;7.55;;;6.50;64.90;;;;;;5053143;28;20017;-73
2020/12/16 01:19:11;;;;;;;12.18;7.43;;;6.50;64.80;;;;;;5053056;28;20052;-73
2020/12/16 01:21:37;;;;;;;13.05;7.45;;;6.50;64.90;;;;;;5052291;28;20310;-72
2020/12/16 01:24:06;;;;;;;13.30;8.00;;;6.50;65.00;;;;;;5053057;28;20037;-74
2020/12/16 01:26:40;;;;;;;12.82;8.30;;;6.50;65.00;;;;;;5053112;28;20017;-73
2020/12/16 01:29:06;;;;;;;12.27;7.35;;;6.50;65.00;;;;;;5053329;28;20060;-73
2020/12/16 01:31:42;;;;;;;13.88;7.95;;;6.50;65.10;;;;;;5054358;28;20029;-73
2020/12/16 01:34:09;;;;;;;13.60;7.28;;;6.50;65.00;;;;;;5056856;28;20483;-74
2020/12/16 01:36:42;;;;;;;15.10;8.10;;;6.50;65.00;;;;;;5056751;28;20035;-74
2020/12/16 01:39:09;;;;;;;16.60;8.90;;;6.50;64.90;;;;;;5056561;28;20039;-71
2020/12/16 01:41:39;;;;;;;19.65;8.95;;;6.50;64.90;;;;;;5056011;28;20116;-72
2020/12/16 01:44:10;;;;;;;16.25;8.52;;;6.50;64.80;;;;;;5056579;28;20497;-72
2020/12/16 01:46:35;;;;;;;16.20;9.57;;;6.40;64.80;;;;;;5056999;28;20024;-72
2020/12/16 01:49:01;;;;;;;17.60;10.15;;;6.40;65.00;;;;;;5056804;28;20017;-72
2020/12/16 01:51:30;;;;;;;15.68;8.23;;;6.50;65.10;;;;;;5057125;28;20437;-72
2020/12/16 01:53:56;;;;;;;15.23;9.07;;;6.50;65.00;;;;;;5057089;28;20028;-72
2020/12/16 01:56:25;;;;;;;14.38;8.55;;;6.50;64.90;;;;;;5056774;28;20013;-73
2020/12/16 01:58:53;;;;;;;12.00;7.65;;;6.50;65.00;;;;;;5056682;28;20027;-73
2020/12/16 02:01:22;;;;;;;12.20;7.45;;;6.40;64.80;;;;;;5056702;28;20029;-71
2020/12/16 02:03:53;;;;;;;13.73;7.78;;;6.40;64.80;;;;;;5056596;28;20029;-72
2020/12/16 02:06:20;;;;;;;13.75;8.00;;;6.40;64.90;;;;;;5057084;28;20052;-72
2020/12/16 02:08:53;;;;;;;13.75;8.45;;;6.40;65.00;;;;;;5056538;28;20338;-72
2020/12/16 02:11:19;;;;;;;11.23;6.85;;;6.40;64.90;;;;;;5055509;28;20024;-72
2020/12/16 02:13:44;;;;;;;13.70;8.07;;;6.30;65.00;;;;;;5056436;28;20029;-72
2020/12/16 02:16:10;;;;;;;12.57;7.10;;;6.30;64.80;;;;;;5056112;28;20032;-73
2020/12/16 02:18:36;;;;;;;12.38;7.70;;;6.30;65.00;;;;;;5056412;28;20028;-72
2020/12/16 02:21:02;;;;;;;11.65;7.35;;;6.30;65.00;;;;;;5055126;28;20382;-73
2020/12/16 02:23:32;;;;;;;13.35;7.65;;;6.20;65.00;;;;;;5055930;28;20060;-73
2020/12/16 02:25:58;;;;;;;14.60;8.05;;;6.20;65.10;;;;;;5056263;28;20024;-72
2020/12/16 02:28:23;;;;;;;13.50;8.18;;;6.30;65.20;;;;;;5055989;28;20025;-72
2020/12/16 02:30:49;;;;;;;14.15;8.57;;;6.30;65.10;;;;;;5056204;28;20091;-72
2020/12/16 02:33:15;;;;;;;12.77;8.15;;;6.30;65.00;;;;;;5056056;28;20024;-72
2020/12/16 02:35:40;;;;;;;15.07;8.95;;;6.30;65.00;;;;;;5056088;28;20113;-72
2020/12/16 02:38:06;;;;;;;12.93;8.43;;;6.30;65.00;;;;;;5055774;28;20047;-72
2020/12/16 02:40:32;;;;;;;13.85;7.93;;;6.30;65.00;;;;;;5056250;28;20013;-73
2020/12/16 02:42:57;;;;;;;11.93;8.07;;;6.30;65.00;;;;;;5055674;28;20128;-73
2020/12/16 02:45:23;;;;;;;12.73;8.00;;;6.30;64.80;;;;;;5055857;28;20361;-72
2020/12/16 02:47:49;;;;;;;13.88;8.05;;;6.30;64.80;;;;;;5056036;28;20020;-72
2020/12/16 02:50:14;;;;;;;12.32;7.35;;;6.20;64.90;;;;;;5056583;28;20017;-73
2020/12/16 02:52:40;;;;;;;12.88;7.68;;;6.20;64.90;;;;;;5056530;28;20349;-72
2020/12/16 02:55:06;;;;;;;12.80;8.45;;;6.20;65.00;;;;;;5055925;28;20028;-73
2020/12/16 02:57:32;;;;;;;14.98;8.05;;;6.20;65.10;;;;;;5055661;28;20017;-73
2020/12/16 02:59:59;;;;;;;13.07;8.30;;;6.20;65.10;;;;;;5055296;28;20074;-72
2020/12/16 03:02:25;;;;;;;15.23;8.32;;;6.20;65.10;;;;;;5055535;28;20025;-72
2020/12/16 03:04:51;;;;;;;14.27;8.98;;;6.20;65.20;;;;;;5055601;28;20019;-73
2020/12/16 03:07:17;;;;;;;14.35;8.88;;;6.20;65.10;;;;;;5055210;28;20060;-72
2020/12/16 03:09:42;;;;;;;14.73;8.15;;;6.20;65.10;;;;;;5055388;28;20072;-72
2020/12/16 03:12:08;;;;;;;15.32;8.73;;;6.30;65.10;;;;;;5055466;28;20091;-72
2020/12/16 03:14:34;;;;;;;13.35;7.82;;;6.20;65.00;;;;;;5055319;28;20021;-73
2020/12/16 03:17:00;;;;;;;15.32;8.55;;;6.20;65.10;;;;;;5053649;28;20043;-73
2020/12/16 03:19:25;;;;;;;14.48;8.15;;;6.30;65.10;;;;;;5055335;28;20128;-73
2020/12/16 03:21:53;;;;;;;15.50;8.90;;;6.30;65.20;;;;;;5055515;28;20032;-72
2020/12/16 03:24:20;;;;;;;12.93;8.90;;;6.30;65.20;;;;;;5055170;28;20021;-73
2020/12/16 03:26:46;;;;;;;15.27;8.60;;;6.30;65.00;;;;;;5053869;28;20032;-72
2020/12/16 03:29:12;;;;;;;16.25;8.82;;;6.30;65.00;;;;;;5053874;28;20059;-72
2020/12/16 03:31:38;;;;;;;14.13;8.60;;;6.20;65.10;;;;;;5054742;28;20045;-73
2020/12/16 03:34:03;;;;;;;15.63;9.70;;;6.20;65.20;;;;;;5055042;28;20039;-73
2020/12/16 03:36:29;;;;;;;14.82;9.05;;;6.20;65.20;;;;;;5054995;28;20035;-72
2020/12/16 03:38:55;;;;;;;14.82;8.15;;;6.20;64.90;;;;;;5054827;28;20060;-74
2020/12/16 03:41:21;;;;;;;17.15;8.77;;;6.30;65.10;;;;;;5053860;28;20032;-74
2020/12/16 03:43:48;;;;;;;14.57;9.20;;;6.20;65.20;;;;;;5054853;28;20346;-72
2020/12/16 03:46:14;;;;;;;17.52;10.30;;;6.30;65.20;;;;;;5054774;28;20398;-73
2020/12/16 03:48:41;;;;;;;17.35;9.80;;;6.30;65.20;;;;;;5053970;28;20358;-73
2020/12/16 03:51:09;;;;;;;17.50;8.77;;;6.30;65.20;;;;;;5054986;28;20021;-73
2020/12/16 03:53:36;;;;;;;17.15;10.05;;;6.30;65.30;;;;;;5052788;28;20075;-72
2020/12/16 03:56:13;;;;;;;16.92;9.88;;;6.30;65.40;;;;;;5054570;28;20028;-73
2020/12/16 03:58:43;;;;;;;18.45;10.63;;;6.30;65.30;;;;;;5053262;28;20017;-73
2020/12/16 04:01:10;;;;;;;16.75;9.52;;;6.30;65.40;;;;;;5053726;28;20407;-73
2020/12/16 04:03:36;;;;;;;18.05;10.52;;;6.30;65.10;;;;;;5054524;28;20104;-73
2020/12/16 04:06:05;;;;;;;25.30;13.77;;;6.30;65.00;;;;;;5054841;28;20052;-73
2020/12/16 04:08:31;;;;;;;23.65;13.63;;;6.30;65.10;;;;;;5054826;28;20050;-73
2020/12/16 04:10:57;;;;;;;23.50;12.52;;;6.30;65.10;;;;;;5054346;28;20539;-74
2020/12/16 04:13:22;;;;;;;25.60;13.40;;;6.30;65.10;;;;;;5054468;28;20043;-73
2020/12/16 04:15:48;;;;;;;22.65;12.43;;;6.20;65.70;;;;;;5053825;28;20100;-73
2020/12/16 04:18:14;;;;;;;17.80;10.75;;;6.20;65.10;;;;;;5054311;28;20016;-72
2020/12/16 04:20:40;;;;;;;15.38;8.23;;;6.20;65.10;;;;;;5053812;28;20100;-73
2020/12/16 04:23:05;;;;;;;13.50;7.75;;;6.20;65.10;;;;;;5053859;28;20029;-73
2020/12/16 04:25:32;;;;;;;14.88;8.85;;;6.20;65.10;;;;;;5054282;28;20052;-71
2020/12/16 04:27:58;;;;;;;14.05;8.57;;;6.20;65.20;;;;;;5053759;28;20020;-74
2020/12/16 04:30:24;;;;;;;14.85;9.02;;;6.10;65.10;;;;;;5054060;28;20507;-72
2020/12/16 04:32:51;;;;;;;15.73;9.07;;;6.10;65.30;;;;;;5054278;28;20029;-72
2020/12/16 04:35:18;;;;;;;15.80;9.05;;;6.10;65.50;;;;;;5053733;28;20025;-73
2020/12/16 04:37:54;;;;;;;14.77;8.77;;;6.20;65.50;;;;;;5053952;28;20072;-73
2020/12/16 04:40:20;;;;;;;14.75;8.40;;;6.20;65.30;;;;;;5053931;28;20059;-72
2020/12/16 04:43:00;;;;;;;13.27;8.20;;;6.20;65.30;;;;;;5052250;28;20025;-71
2020/12/16 04:45:26;;;;;;;12.45;8.35;;;6.20;65.40;;;;;;5054318;28;20067;-72
2020/12/16 04:47:52;;;;;;;14.02;9.00;;;6.20;65.50;;;;;;5052507;28;20020;-72
2020/12/16 04:50:18;;;;;;;15.88;10.05;;;6.20;65.50;;;;;;5053487;28;20382;-73
2020/12/16 04:52:48;;;;;;;14.13;7.82;;;6.30;65.50;;;;;;5053450;28;20025;-72
2020/12/16 04:55:16;;;;;;;15.60;8.00;;;6.20;65.20;;;;;;5053714;28;20033;-73
2020/12/16 04:57:45;;;;;;;14.90;8.93;;;6.20;65.10;;;;;;5053336;28;20035;-72
2020/12/16 05:00:11;;;;;;;13.95;7.95;;;6.20;65.30;;;;;;5053468;28;20075;-72
2020/12/16 05:02:37;;;;;;;15.27;9.23;;;6.20;65.10;;;;;;5052013;28;20056;-72
2020/12/16 05:05:02;;;;;;;24.85;11.25;;;6.20;65.30;;;;;;5053760;28;20021;-73
2020/12/16 05:07:29;;;;;;;21.02;11.40;;;6.20;65.40;;;;;;5053383;28;20027;-73
2020/12/16 05:09:55;;;;;;;21.35;11.00;;;6.20;65.40;;;;;;5053633;28;20049;-73
2020/12/16 05:12:21;;;;;;;26.58;13.18;;;6.20;65.40;;;;;;5053774;28;20040;-73
2020/12/16 05:14:47;;;;;;;30.33;14.57;;;6.20;65.30;;;;;;5053079;28;20495;-73
2020/12/16 05:17:12;;;;;;;52.40;16.70;;;6.20;65.40;;;;;;5053929;28;20425;-73
2020/12/16 05:19:40;;;;;;;33.90;19.58;;;6.20;65.40;;;;;;5051867;28;20135;-73
2020/12/16 05:22:21;;;;;;;24.20;13.77;;;6.20;65.30;;;;;;5053441;28;20017;-73
2020/12/16 05:24:51;;;;;;;21.33;11.07;;;6.20;65.10;;;;;;5052863;28;20524;-72
2020/12/16 05:27:20;;;;;;;18.42;10.80;;;6.20;65.20;;;;;;5053111;28;20032;-73
2020/12/16 05:29:48;;;;;;;18.15;10.23;;;6.20;65.40;;;;;;5052969;28;20017;-72
2020/12/16 05:32:35;;;;;;;18.38;10.80;;;6.20;65.40;;;;;;5053356;28;20044;-72
2020/12/16 05:35:22;;;;;;;18.77;10.48;;;6.20;65.40;;;;;;5052957;28;20020;-72
2020/12/16 05:37:48;;;;;;;15.85;10.20;;;6.20;65.40;;;;;;5053218;28;20039;-73
2020/12/16 05:40:20;;;;;;;17.92;10.02;;;6.20;65.40;;;;;;5053037;28;20427;-74
2020/12/16 05:42:48;;;;;;;20.13;10.82;;;6.30;65.50;;;;;;5052214;28;20400;-74
2020/12/16 05:45:16;;;;;;;19.45;11.05;;;6.30;65.50;;;;;;5052965;28;20032;-73
2020/12/16 05:47:56;;;;;;;18.45;11.05;;;6.30;65.40;;;;;;5051684;28;20017;-73
2020/12/16 05:50:22;;;;;;;20.02;10.63;;;6.30;65.50;;;;;;5052835;28;20353;-73
2020/12/16 05:52:48;;;;;;;19.92;12.35;;;6.30;65.40;;;;;;5052635;28;20025;-73
2020/12/16 05:55:26;;;;;;;21.58;11.95;;;6.30;65.10;;;;;;5052808;28;20021;-74
2020/12/16 05:58:10;;;;;;;18.65;10.80;;;6.30;65.00;;;;;;5053296;28;20081;-73
2020/12/16 06:00:56;;;;;;;19.52;10.93;;;6.20;64.90;;;;;;5051655;28;20063;-74
2020/12/16 06:03:29;;;;;;;15.07;8.40;;;6.20;64.90;;;;;;5052976;28;20025;-74
2020/12/16 06:06:03;;;;;;;12.77;8.02;;;6.10;64.90;;;;;;5052806;28;20021;-74
2020/12/16 06:08:42;;;;;;;13.95;7.40;;;6.10;65.10;;;;;;5052966;28;20115;-73
2020/12/16 06:11:11;;;;;;;13.75;7.97;;;6.00;65.20;;;;;;5052171;28;20032;-73
2020/12/16 06:13:37;;;;;;;15.90;8.85;;;6.10;65.40;;;;;;5052603;28;20024;-72
2020/12/16 06:16:04;;;;;;;18.42;9.10;;;6.10;65.40;;;;;;5051369;28;20441;-73
2020/12/16 06:18:38;;;;;;;17.05;10.30;;;6.10;65.40;;;;;;5055394;28;20049;-73
2020/12/16 06:21:08;;;;;;;19.35;10.02;;;6.10;65.40;;;;;;5056429;28;20024;-73
2020/12/16 06:23:37;;;;;;;18.95;10.30;;;6.20;65.40;;;;;;5055931;28;20029;-73
2020/12/16 06:26:14;;;;;;;23.08;12.25;;;6.20;65.20;;;;;;5056352;28;20074;-75
2020/12/16 06:28:42;;;;;;;17.88;10.68;;;6.20;65.20;;;;;;5056089;28;20017;-73
2020/12/16 06:31:23;;;;;;;14.85;9.77;;;6.20;65.00;;;;;;5054542;28;20028;-73
2020/12/16 06:33:59;;;;;;;15.18;10.00;;;6.20;65.00;;;;;;5056568;28;20070;-72
2020/12/16 06:36:38;;;;;;;17.20;9.68;;;6.20;65.00;;;;;;5055626;28;20029;-75
2020/12/16 06:39:22;;;;;;;19.40;9.80;;;6.20;65.00;;;;;;5055743;28;20021;-73
2020/12/16 06:41:55;;;;;;;14.57;8.85;;;6.10;65.10;;;;;;5055570;28;20058;-73
2020/12/16 06:44:22;;;;;;;15.80;9.25;;;6.10;65.20;;;;;;5055888;28;20405;-74
2020/12/16 06:46:55;;;;;;;16.13;8.77;;;6.10;65.10;;;;;;5056038;28;20381;-73
2020/12/16 06:49:23;;;;;;;18.50;9.30;;;6.10;65.10;;;;;;5055879;28;20029;-73
2020/12/16 06:51:54;;;;;;;17.08;9.63;;;6.10;65.00;;;;;;5055490;28;20028;-74
2020/12/16 06:54:26;;;;;;;14.48;8.55;;;6.10;64.90;;;;;;5055418;28;20108;-73
2020/12/16 06:57:29;;;;;;;17.52;10.07;;;6.10;65.00;;;;;;5055746;28;20155;-74
2020/12/16 06:59:59;;;;;;;15.88;9.15;;;6.10;65.10;;;;;;5054990;28;20017;-73
2020/12/16 07:02:35;;;;;;;14.30;8.75;;;6.10;65.10;;;;;;5054171;28;20108;-74
2020/12/16 07:05:04;;;;;;;17.73;10.02;;;6.10;65.10;;;;;;5055164;28;20075;-72
2020/12/16 07:07:55;;;;;;;17.48;9.63;;;6.10;65.00;;;;;;5054602;28;20032;-72
2020/12/16 07:10:36;;;;;;;17.63;10.50;;;6.20;65.10;;;;;;5055767;28;20044;-74
2020/12/16 07:13:24;;;;;;;20.23;10.60;;;6.20;65.10;;;;;;5054624;28;20057;-73
2020/12/16 07:16:03;;;;;;;18.65;11.40;;;6.20;64.90;;;;;;5055404;28;20070;-74
2020/12/16 07:18:31;;;;;;;14.85;8.88;;;6.20;64.80;;;;;;5054865;28;20048;-73
2020/12/16 07:21:19;;;;;;;17.52;9.95;;;6.20;64.80;;;;;;5054869;28;20021;-73
2020/12/16 07:23:54;;;;;;;18.38;10.90;;;6.10;64.90;;;;;;5055058;28;20029;-74
2020/12/16 07:26:23;;;;;;;19.17;10.95;;;6.10;64.90;;;;;;5055262;28;20024;-75
2020/12/16 07:28:49;;;;;;;19.20;11.18;;;6.10;65.00;;;;;;5052402;28;20083;-75
2020/12/16 07:31:15;;;;;;;20.33;12.32;;;6.20;65.20;;;;;;5055349;28;20442;-75
2020/12/16 07:33:41;;;;;;;20.35;12.93;;;6.20;65.20;;;;;;5053483;28;20448;-74
2020/12/16 07:36:08;;;;;;;22.35;12.45;;;6.30;65.10;;;;;;5053507;28;20124;-75
2020/12/16 07:38:34;;;;;;;29.92;14.05;;;6.30;65.00;;;;;;5054651;28;20029;-75
2020/12/16 07:41:01;;;;;;;37.08;14.88;;;6.30;64.90;;;;;;5054902;28;20021;-74
2020/12/16 07:43:27;;;;;;;30.10;14.65;;;6.30;65.00;;;;;;5054511;28;20029;-75
2020/12/16 07:46:07;;;;;;;27.42;14.23;;;6.30;64.70;;;;;;5037142;28;20032;-73
2020/12/16 07:48:36;;;;;;;29.48;12.95;;;6.30;65.30;;;;;;5054236;28;20025;-74
2020/12/16 07:51:08;;;;;;;28.80;14.50;;;6.30;64.70;;;;;;5055065;28;20020;-75
2020/12/16 07:53:35;;;;;;;32.50;14.93;;;6.30;64.90;;;;;;5054752;28;20025;-74
2020/12/16 07:56:03;;;;;;;31.65;15.00;;;6.30;65.00;;;;;;5054760;28;20020;-74
2020/12/16 07:58:30;;;;;;;30.17;13.43;;;6.30;64.80;;;;;;5054487;28;20024;-73
2020/12/16 08:01:07;;;;;;;24.30;11.93;;;6.40;64.90;;;;;;5054698;28;20385;-74
2020/12/16 08:03:34;;;;;;;22.80;12.10;;;6.30;64.80;;;;;;5054611;28;20449;-72
2020/12/16 08:06:00;;;;;;;27.02;12.07;;;6.30;64.60;;;;;;5054432;28;20460;-75
2020/12/16 08:08:26;;;;;;;26.25;12.82;;;6.30;64.80;;;;;;5054776;28;20437;-73
2020/12/16 08:10:51;;;;;;;20.58;12.27;;;6.30;64.70;;;;;;5052802;28;20092;-73
2020/12/16 08:13:22;;;;;;;24.50;12.32;;;6.30;64.80;;;;;;5054175;28;20341;-72
2020/12/16 08:15:48;;;;;;;23.55;12.80;;;6.40;64.70;;;;;;5052798;28;20021;-73
2020/12/16 08:18:16;;;;;;;23.27;13.50;;;6.40;64.80;;;;;;5053879;28;20083;-73
2020/12/16 08:20:42;;;;;;;21.15;13.00;;;6.40;64.80;;;;;;5054653;28;20020;-74
2020/12/16 08:23:12;;;;;;;30.33;15.68;;;6.50;64.70;;;;;;5053931;28;20072;-74
2020/12/16 08:25:39;;;;;;;23.27;12.80;;;6.50;64.50;;;;;;5054880;28;20039;-74
2020/12/16 08:28:05;;;;;;;22.42;13.07;;;6.60;64.50;;;;;;5054104;28;20075;-74
2020/12/16 08:30:32;;;;;;;23.98;13.77;;;6.60;64.40;;;;;;5052499;28;20043;-72
2020/12/16 08:33:17;;;;;;;23.13;13.30;;;6.60;64.30;;;;;;5052984;28;20115;-74
2020/12/16 08:35:53;;;;;;;25.15;13.85;;;6.60;64.10;;;;;;5054366;28;20036;-75
2020/12/16 08:38:32;;;;;;;33.15;16.33;;;6.60;64.10;;;;;;5053626;28;20029;-74
2020/12/16 08:41:00;;;;;;;62.70;21.23;;;6.60;64.10;;;;;;5052525;28;20075;-74
2020/12/16 08:43:35;;;;;;;40.50;18.33;;;6.60;64.00;;;;;;5053838;28;20353;-74
2020/12/16 08:46:05;;;;;;;39.17;18.95;;;6.60;64.00;;;;;;5052752;28;20033;-72
2020/12/16 08:48:46;;;;;;;35.38;18.65;;;6.60;64.10;;;;;;5054079;28;20021;-76
2020/12/16 08:51:16;;;;;;;68.65;23.05;;;6.60;63.90;;;;;;5054024;28;20021;-74
2020/12/16 08:53:48;;;;;;;86.88;30.10;;;6.50;63.80;;;;;;5053738;28;20025;-74
2020/12/16 08:56:21;;;;;;;87.75;29.92;;;6.50;63.70;;;;;;5053877;28;20052;-75
2020/12/16 08:58:58;;;;;;;94.50;33.03;;;6.40;63.60;;;;;;5053367;28;20021;-73
2020/12/16 09:01:24;;;;;;;83.82;29.98;;;6.30;63.80;;;;;;5053642;28;20432;-74
2020/12/16 09:03:52;;;;;;;89.07;32.80;;;6.30;63.70;;;;;;5053448;28;20032;-74
2020/12/16 09:06:18;;;;;;;86.30;32.15;;;6.20;63.70;;;;;;5052992;28;20112;-73
2020/12/16 09:08:43;;;;;;;94.03;34.40;;;6.10;64.10;;;;;;5035181;28;20112;-73
2020/12/16 09:11:09;;;;;;;85.53;33.35;;;6.10;64.20;;;;;;5054023;28;20032;-74
2020/12/16 09:13:35;;;;;;;77.53;30.38;;;6.10;64.50;;;;;;5051944;28;20021;-74
2020/12/16 09:16:00;;;;;;;89.65;31.63;;;6.10;64.50;;;;;;5053580;28;20156;-75
2020/12/16 09:18:28;;;;;;;94.38;33.60;;;6.10;64.60;;;;;;5051984;28;20487;-74
2020/12/16 09:20:54;;;;;;;107.13;35.78;;;6.10;64.60;;;;;;5053159;28;20100;-73
2020/12/16 09:23:25;;;;;;;109.50;36.22;;;6.10;64.60;;;;;;5053007;28;20369;-74
2020/12/16 09:25:51;;;;;;;116.25;36.95;;;6.10;64.80;;;;;;5053091;28;20484;-73
2020/12/16 09:28:17;;;;;;;175.70;50.58;;;6.20;64.80;;;;;;5051829;28;20056;-74
2020/12/16 09:30:43;;;;;;;205.68;58.08;;;6.10;64.40;;;;;;5053198;28;20353;-73
2020/12/16 09:33:11;;;;;;;198.65;59.33;;;6.10;64.40;;;;;;5052909;28;20520;-73
2020/12/16 09:35:37;;;;;;;216.20;56.75;;;6.00;64.50;;;;;;5053094;28;20086;-73
2020/12/16 09:38:18;;;;;;;206.02;58.55;;;6.10;64.60;;;;;;5053590;28;20341;-73
2020/12/16 09:40:45;;;;;;;182.38;52.92;;;5.90;64.30;;;;;;5053594;28;20445;-74
2020/12/16 09:43:14;;;;;;;178.77;49.95;;;5.90;64.70;;;;;;5053256;28;20021;-73
2020/12/16 09:45:40;;;;;;;155.25;50.33;;;5.80;65.10;;;;;;5051871;28;20029;-73
2020/12/16 09:48:07;;;;;;;156.68;47.58;;;5.70;64.90;;;;;;5052750;28;20036;-74
2020/12/16 09:50:35;;;;;;;177.07;56.13;;;5.70;65.10;;;;;;5053201;28;20096;-73
2020/12/16 09:53:07;;;;;;;146.57;46.70;;;5.70;65.30;;;;;;5054886;28;20168;-73
2020/12/16 09:55:40;;;;;;;152.25;46.35;;;5.70;65.30;;;;;;5056771;28;20357;-74
2020/12/16 09:58:10;;;;;;;131.20;42.35;;;5.70;65.30;;;;;;5056577;28;20390;-73
2020/12/16 10:00:37;;;;;;;139.13;43.20;;;5.60;65.40;;;;;;5056312;28;20108;-76
2020/12/16 10:03:03;;;;;;;101.93;38.20;;;5.60;65.40;;;;;;5057010;28;20088;-74
2020/12/16 10:05:29;;;;;;;92.55;34.63;;;5.50;65.40;;;;;;5056580;28;20061;-73
2020/12/16 10:07:55;;;;;;;92.50;36.47;;;5.50;65.60;;;;;;5056225;28;20571;-74
2020/12/16 10:10:22;;;;;;;93.40;34.95;;;5.40;65.80;;;;;;5056744;28;20072;-74
2020/12/16 10:12:48;;;;;;;106.18;37.38;;;5.40;66.20;;;;;;5056771;28;20055;-73
2020/12/16 10:15:14;;;;;;;108.88;38.83;;;5.40;66.20;;;;;;5057130;28;20032;-73
2020/12/16 10:17:40;;;;;;;112.45;37.97;;;5.40;66.50;;;;;;5056127;28;20021;-73
2020/12/16 10:20:06;;;;;;;95.90;32.03;;;5.50;66.70;;;;;;5056624;28;20036;-74
2020/12/16 10:22:32;;;;;;;85.82;30.65;;;5.50;66.70;;;;;;5054944;28;20131;-74
2020/12/16 10:24:58;;;;;;;59.20;23.65;;;5.60;66.60;;;;;;5056071;28;20115;-73
2020/12/16 10:27:24;;;;;;;79.05;31.52;;;5.60;66.50;;;;;;5056191;28;20025;-75
2020/12/16 10:29:50;;;;;;;67.40;30.20;;;5.60;65.90;;;;;;5055435;28;20021;-74
2020/12/16 10:32:16;;;;;;;72.70;30.55;;;5.50;65.80;;;;;;5055789;28;20017;-73
2020/12/16 10:34:42;;;;;;;69.82;28.05;;;5.50;65.90;;;;;;5056304;28;20021;-74
2020/12/16 10:37:08;;;;;;;67.75;30.83;;;5.40;65.90;;;;;;5055834;28;20021;-74
2020/12/16 10:39:34;;;;;;;62.95;28.63;;;5.40;66.20;;;;;;5054593;28;20107;-74
2020/12/16 10:41:59;;;;;;;75.50;30.77;;;5.30;66.60;;;;;;5056205;28;20024;-74
2020/12/16 10:44:26;;;;;;;99.85;37.08;;;5.40;66.60;;;;;;5055996;28;20025;-74
2020/12/16 10:46:54;;;;;;;117.47;42.85;;;5.40;66.50;;;;;;5056098;28;20131;-73
2020/12/16 10:49:22;;;;;;;144.60;47.30;;;5.30;66.40;;;;;;5055780;28;20057;-73
2020/12/16 10:51:47;;;;;;;132.25;45.15;;;5.30;66.50;;;;;;5055769;28;20452;-74
2020/12/16 10:54:14;;;;;;;122.32;42.15;;;5.20;66.70;;;;;;5055926;28;20094;-75
2020/12/16 10:56:40;;;;;;;84.22;30.65;;;5.20;66.90;;;;;;5055372;28;20035;-72
2020/12/16 10:59:06;;;;;;;80.50;33.42;;;5.20;66.80;;;;;;5054281;28;20115;-74
2020/12/16 11:01:36;;;;;;;88.45;35.10;;;5.20;67.00;;;;;;5055609;28;20059;-73
2020/12/16 11:04:08;;;;;;;59.90;21.83;;;5.20;67.00;;;;;;5055461;28;20076;-74
2020/12/16 11:06:35;;;;;;;51.85;22.05;;;5.20;67.00;;;;;;5055559;28;20126;-73
2020/12/16 11:09:02;;;;;;;71.25;28.98;;;5.20;66.70;;;;;;5055339;28;20445;-74
2020/12/16 11:11:28;;;;;;;64.63;27.23;;;5.20;66.90;;;;;;5055534;28;20053;-74
2020/12/16 11:13:53;;;;;;;68.40;30.73;;;5.10;66.90;;;;;;5055657;28;20445;-74
2020/12/16 11:16:19;;;;;;;53.72;25.13;;;5.10;66.70;;;;;;5056079;28;20013;-75
2020/12/16 11:18:47;;;;;;;55.20;24.48;;;5.00;67.00;;;;;;5055391;28;20441;-75
2020/12/16 11:21:13;;;;;;;41.40;19.17;;;5.00;67.30;;;;;;5055321;28;20036;-73
2020/12/16 11:23:40;;;;;;;30.90;15.80;;;4.90;67.30;;;;;;5055371;28;20075;-73
2020/12/16 11:26:06;;;;;;;37.58;17.58;;;4.90;67.30;;;;;;5054360;28;20032;-73
2020/12/16 11:28:32;;;;;;;36.58;18.08;;;4.90;67.50;;;;;;5055242;28;20021;-74
2020/12/16 11:31:01;;;;;;;84.78;26.88;;;4.90;67.60;;;;;;5054996;28;20023;-74
2020/12/16 11:33:27;;;;;;;80.25;26.95;;;4.90;67.60;;;;;;5054961;28;20039;-73
2020/12/16 11:35:54;;;;;;;88.38;29.10;;;4.90;67.50;;;;;;5055076;28;20108;-73
2020/12/16 11:38:19;;;;;;;68.00;24.48;;;4.90;67.50;;;;;;5053672;28;20033;-74
2020/12/16 11:40:46;;;;;;;43.90;18.50;;;4.90;67.50;;;;;;5054969;28;20021;-73
2020/12/16 11:43:12;;;;;;;51.60;16.40;;;4.80;67.60;;;;;;5054945;28;20346;-72
2020/12/16 11:45:38;;;;;;;77.43;21.80;;;4.80;67.50;;;;;;5054839;28;20029;-74
2020/12/16 11:48:03;;;;;;;63.40;21.80;;;4.70;67.60;;;;;;5054660;28;20021;-73
2020/12/16 11:50:30;;;;;;;90.53;24.67;;;4.70;67.70;;;;;;5054710;28;20024;-73
2020/12/16 11:52:56;;;;;;;54.00;21.35;;;4.70;67.80;;;;;;5055199;28;20124;-75
2020/12/16 11:55:22;;;;;;;48.88;19.33;;;4.60;67.70;;;;;;5054663;28;20024;-74
2020/12/16 11:57:48;;;;;;;39.38;18.10;;;4.60;68.00;;;;;;5054286;28;20104;-74
2020/12/16 12:00:14;;;;;;;39.13;19.35;;;4.60;68.30;;;;;;5053539;28;20408;-73
2020/12/16 12:02:40;;;;;;;40.35;18.48;;;4.60;68.40;;;;;;5053301;28;20025;-73
2020/12/16 12:05:06;;;;;;;45.05;19.85;;;4.60;68.50;;;;;;5054745;28;20108;-73
2020/12/16 12:07:32;;;;;;;42.15;18.05;;;4.60;68.50;;;;;;5054632;28;20028;-75
2020/12/16 12:09:58;;;;;;;45.10;19.17;;;4.70;68.90;;;;;;5052819;28;20037;-73
2020/12/16 12:12:28;;;;;;;51.05;21.75;;;4.70;68.60;;;;;;5052679;28;20021;-74
2020/12/16 12:14:54;;;;;;;80.03;33.53;;;4.70;68.50;;;;;;5053971;28;20057;-74
2020/12/16 12:17:20;;;;;;;67.88;24.08;;;4.70;68.70;;;;;;5054629;28;20078;-69
2020/12/16 12:19:50;;;;;;;57.55;22.30;;;4.70;68.50;;;;;;5054160;28;20031;-70
2020/12/16 12:22:16;;;;;;;119.97;34.70;;;4.70;68.60;;;;;;5054377;28;20044;-71
2020/12/16 12:24:41;;;;;;;71.88;26.95;;;4.60;68.40;;;;;;5054238;28;20064;-71
2020/12/16 12:27:10;;;;;;;92.95;25.77;;;4.60;68.50;;;;;;5054353;28;20465;-71
2020/12/16 12:29:36;;;;;;;77.18;23.23;;;4.50;68.80;;;;;;5052677;28;20448;-71
2020/12/16 12:32:08;;;;;;;74.13;26.27;;;4.60;69.10;;;;;;5053632;28;20023;-70
2020/12/16 12:34:33;;;;;;;91.75;30.83;;;4.60;69.20;;;;;;5053826;28;20079;-70
2020/12/16 12:37:01;;;;;;;111.40;33.13;;;4.70;69.30;;;;;;5053912;28;20021;-70
2020/12/16 12:39:27;;;;;;;53.13;21.05;;;4.70;69.30;;;;;;5053809;28;20112;-72
2020/12/16 12:41:55;;;;;;;48.28;20.85;;;4.70;69.10;;;;;;5053605;28;20450;-70
2020/12/16 12:44:27;;;;;;;51.65;25.48;;;4.70;69.00;;;;;;5053743;28;20075;-70
2020/12/16 12:46:53;;;;;;;48.17;20.90;;;4.70;69.10;;;;;;5052749;28;20419;-70